• Join FlightAware (Why Join?)
  • Login
  • US Flag 
04:06AM EDT


 

Airport Tracker/Info


-or-


 

Live Flight TrackerFlight Track Log ✈ SWA279 ✈ 24-Apr-2013 ✈ KRNO - KPDX

Flight Track Log - Related Links

Times and Time Zones

All times are in EDT time to prevent confusion due to time zone crossing. See the SWA279 flight status page for this flight to view local times or setup timezone preferences in your user account.

Time Position Orientation Groundspeed Altitude Reporting Facility
EDT Latitude Longitude Course Direction KTS MPH feet Rate Location/Type
09:35PM 39.5333 -119.7667 346° North 161 185 5,900  Level Northern Cal TRACON
09:36PM 39.5833 -119.7833 346° North 231 266 8,200 2,640 Climbing Northern Cal TRACON
09:37PM 39.6581 -119.8231 338° Northwest 260 299 11,600 3,180 Climbing Oakland Center
09:38PM 39.7522 -119.8589 344° North 323 372 15,100 3,540 Climbing Oakland Center
09:39PM 39.8461 -119.9039 340° North 358 412 18,800 3,480 Climbing Oakland Center
09:40PM 39.9411 -119.9636 334° Northwest 373 429 22,200 3,120 Climbing Oakland Center
09:41PM 40.0386 -120.0256 334° Northwest 387 445 25,200 2,760 Climbing Oakland Center
09:42PM 40.1408 -120.0894 334° Northwest 401 461 27,900 2,460 Climbing Oakland Center
09:43PM 40.2444 -120.1528 335° Northwest 409 471 30,300 2,460 Climbing Oakland Center
09:44PM 40.3492 -120.2186 334° Northwest 416 479 33,000 2,160 Climbing Oakland Center
09:45PM 40.4519 -120.2831 334° Northwest 410 472 34,700 1,740 Climbing Oakland Center
09:46PM 40.5719 -120.3553 335° Northwest 425 489 36,600 1,620 Climbing Oakland Center
09:47PM 40.6789 -120.4211 335° Northwest 424 488 38,100 720 Climbing Oakland Center
09:48PM 40.7819 -120.4872 334° Northwest 414 476 38,100  Level Oakland Center
09:49PM 40.8847 -120.5531 334° Northwest 410 472 38,100  Level Oakland Center
09:50PM 40.9261 -120.5797 334° Northwest 411 473 38,100  Level Seattle Center
09:51PM 41.0294 -120.6456 334° Northwest 412 474 38,100  Level Seattle Center
09:52PM 41.1314 -120.7119 334° Northwest 409 471 38,100  Level Seattle Center
09:53PM 41.2339 -120.7764 335° Northwest 407 468 38,100  Level Seattle Center
09:54PM 41.3361 -120.8428 334° Northwest 407 468 38,100  Level Seattle Center
09:55PM 41.4344 -120.9083 333° Northwest 400 460 38,100  Level Seattle Center
09:56PM 41.5342 -120.9739 334° Northwest 399 459 38,100  Level Seattle Center
09:57PM 41.6344 -121.0389 334° Northwest 401 461 38,100  Level Seattle Center
09:58PM 41.7339 -121.1033 334° Northwest 398 458 38,100  Level Seattle Center
09:59PM 41.8339 -121.1694 334° Northwest 401 461 38,100  Level Seattle Center
10:00PM 41.9342 -121.2353 334° Northwest 403 464 38,100  Level Seattle Center
10:01PM 42.0358 -121.3014 334° Northwest 406 467 38,100  Level Seattle Center
10:02PM 42.1603 -121.3833 334° Northwest 422 486 38,100  Level Seattle Center
10:03PM 42.2647 -121.4539 333° Northwest 425 489 38,100  Level Seattle Center
10:04PM 42.3669 -121.5225 334° Northwest 416 479 38,100  Level Seattle Center
10:05PM 42.4706 -121.5906 334° Northwest 416 479 38,100  Level Seattle Center
10:06PM 42.5731 -121.6594 334° Northwest 413 475 38,100  Level Seattle Center
10:07PM 42.6733 -121.7281 333° Northwest 406 467 38,100  Level Seattle Center
10:08PM 42.7722 -121.7956 333° Northwest 401 461 38,100  Level Seattle Center
10:09PM 42.8719 -121.8619 334° Northwest 401 461 38,100  Level Seattle Center
10:10PM 42.9711 -121.9294 334° Northwest 400 460 38,100  Level Seattle Center
10:11PM 43.0694 -121.9967 333° Northwest 397 457 38,100  Level Seattle Center
10:12PM 43.1694 -122.0664 333° Northwest 402 463 38,100  Level Seattle Center
10:13PM 43.2806 -122.1414 334° Northwest 405 466 38,100  Level Seattle Center
10:14PM 43.3831 -122.2097 334° Northwest 408 470 38,100  Level Seattle Center
10:15PM 43.4836 -122.2817 333° Northwest 407 468 38,100  Level Seattle Center
10:16PM 43.5842 -122.3531 333° Northwest 407 468 38,100  Level Seattle Center
10:17PM 43.6847 -122.4231 333° Northwest 405 466 38,100  Level Seattle Center
10:18PM 43.7858 -122.4942 333° Northwest 408 470 38,100  Level Seattle Center
10:19PM 43.8908 -122.5436 341° North 402 463 38,100 -1,020 Level Seattle Center
10:20PM 44.0253 -122.5606 355° North 404 465 36,100 -2,640 Descending Seattle Center
10:21PM 44.1367 -122.5733 355° North 403 464 32,800 -3,180 Descending Seattle Center
10:22PM 44.2478 -122.5861 355° North 403 464 29,700 -2,820 Descending Seattle Center
10:23PM 44.3550 -122.5981 355° North 392 451 27,100 -2,520 Descending Seattle Center
10:24PM 44.4575 -122.6097 355° North 375 432 24,600 -2,460 Descending Seattle Center
10:25PM 44.5569 -122.6217 355° North 362 417 22,200 -2,520 Descending Seattle Center
10:26PM 44.6417 -122.6347 354° North 355 409 20,100 -2,520 Descending Seattle Center
10:27PM 44.7100 -122.6408 356° North 353 406 18,500 -2,160 Descending Seattle Center
10:27PM 44.7528 -122.6464 355° North 354 407 17,500 -2,520 Descending Seattle Center
10:27PM 44.7967 -122.6517 355° North 346 398 16,200 -2,460 Descending Seattle Center
10:28PM 44.8478 -122.6581 355° North 348 400 15,000 -2,400 Descending Seattle Center
10:28PM 44.8925 -122.6647 354° North 340 391 13,800 -2,700 Descending Seattle Center
10:29PM 44.9464 -122.6700 356° North 340 391 12,300 -2,340 Descending Seattle Center
10:29PM 44.9847 -122.6703 360° North 330 380 11,500 -1,800 Descending Seattle Center
10:30PM 45.0361 -122.6667 North 328 377 10,500 -1,320 Descending Seattle Center
10:30PM 45.0719 -122.6625 North 305 351 10,200 -1,200 Descending Seattle Center
10:31PM 45.1175 -122.6569 North 304 350 9,300 -1,620 Descending Seattle Center
10:31PM 45.1567 -122.6528 North 284 327 8,600 -1,620 Descending Seattle Center
10:32PM 45.1956 -122.6481 North 287 330 7,700 -1,740 Descending Seattle Center
10:33PM 45.2419 -122.6458 North 281 323 6,700 -1,620 Descending Seattle Center
10:33PM 45.2725 -122.6411 North 281 323 6,100 -1,440 Descending Seattle Center
10:34PM 45.3286 -122.6353 North 276 318 5,100 -1,140 Descending Seattle Center
10:34PM 45.3486 -122.6336 North 277 319 5,000 -120 Descending Seattle Center
10:35PM 45.4028 -122.6267 North 265 305 5,000  Level Seattle Center
10:35PM 45.4217 -122.6244 North 269 310 5,000 -240 Level Seattle Center
10:36PM 45.4361 -122.5669 70° East 230 265 4,800 -540 Descending Seattle Center
10:36PM 45.4317 -122.5447 106° East 246 283 4,500 -1,020 Descending Seattle Center
10:37PM 45.4175 -122.4853 109° East 216 249 3,800 -1,200 Descending Seattle Center
10:37PM 45.4139 -122.4458 97° East 221 254 3,300 -840 Descending Seattle Center
10:38PM 45.4408 -122.4294 23° Northeast 191 220 3,000 -300 Descending Seattle Center
10:38PM 45.4639 -122.4200 16° North 191 220 3,000 -360 Level Seattle Center
10:39PM 45.4942 -122.4044 20° North 173 199 2,600 -540 Descending Seattle Center
10:39PM 45.5097 -122.3997 12° North 176 203 2,500 -420 Descending Seattle Center
10:40PM 45.5267 -122.4250 314° West 170 196 2,300 -720 Descending Seattle Center
10:40PM 45.5386 -122.4506 304° West 161 185 1,800 -900 Descending Seattle Center
10:41PM 45.5486 -122.4806 295° West 161 185 1,400 -720 Descending Seattle Center
10:41PM 45.5586 -122.5025 303° West 158 182 1,100 -660 Descending Seattle Center
10:42PM 45.5708 -122.5364 297° West 114 131 600 -720 Descending Seattle Center
10:42PM 45.5758 -122.5461 306° West 145 167 400 -840 Descending Seattle Center
10:44PM 45.5833 -122.5833 295° West  Level FlightAware Approximate